Chang Sheng — V3PK — position and weather

sailwx.info

Track history (hours):
 
Tides and Currents Weather Stations Pressure Air Temp Water Temp Dewpoint Dewpoint Depression Visibility Wind Speed Wind Dir Waves Ship Positions

Chang Sheng

Last reported at 2014-Aug-16 20:05 UTC. Time now 2014-Aug-30 18:34 UTC.
Position N 33°57' E 132°41'.
Warning: this ship's position is 13 days out of date.

Length 86 m; draft 4.7 m.

Type: Cargo ship. MMSI: 312161000.

Date/timePositionNaut miles runAvg speedWind from/ knotsBaromVisibWave heightAir tempDewpointWater temp
2014-Aug-16 20:05N 33°57' E 132°41'116 8.4
2014-Aug-16 06:20N 34°35' E 134°53'7 8.9
2014-Aug-16 05:31N 34°37' E 135°01'8 8.5
2014-Aug-16 04:33N 34°34' E 135°11'9 8.5
2014-Aug-16 03:33N 34°33' E 135°21'4 3.7
2014-Aug-16 02:33N 34°31' E 135°24'0 0.0
2014-Aug-16 01:12N 34°31' E 135°24'0 0.0
2014-Aug-16 00:30N 34°31' E 135°24'0 0.0
2014-Aug-15 06:18N 34°31' E 135°24'0 0.0
2014-Aug-15 05:06N 34°31' E 135°24'0 0.0
2014-Aug-15 04:30N 34°31' E 135°24'0 0.0
2014-Aug-15 02:06N 34°31' E 135°24'0 0.0
2014-Aug-14 11:12N 34°31' E 135°24'0 0.0
2014-Aug-14 10:06N 34°31' E 135°24'0 0.0
2014-Aug-14 09:24N 34°31' E 135°24'0 0.1
2014-Aug-14 08:30N 34°31' E 135°24'0 0.0
2014-Aug-14 07:18N 34°31' E 135°24'0 0.0
2014-Aug-14 05:18N 34°31' E 135°24'0 0.0
2014-Aug-13 22:15N 34°31' E 135°24'1 1.2
2014-Aug-13 21:32N 34°32' E 135°24'2 2.2
2014-Aug-13 20:33N 34°32' E 135°22'0 0.0
2014-Aug-13 19:33N 34°32' E 135°22'0 0.0
2014-Aug-13 18:33N 34°32' E 135°22'0 0.0
2014-Aug-13 17:33N 34°32' E 135°22'0 0.0
2014-Aug-13 16:33N 34°32' E 135°22'0 0.0
2014-Aug-13 15:33N 34°32' E 135°22'0 0.0
2014-Aug-13 14:33N 34°32' E 135°22'0 0.1
2014-Aug-13 13:33N 34°32' E 135°22'0 0.0
2014-Aug-13 12:31N 34°32' E 135°22'0 0.0
2014-Aug-13 11:29N 34°32' E 135°22'0 0.0
2014-Aug-13 10:33N 34°32' E 135°22'0 0.1
2014-Aug-13 09:33N 34°32' E 135°22'0 0.0
2014-Aug-13 08:33N 34°32' E 135°22'0 0.0
2014-Aug-13 07:33N 34°32' E 135°22'0 0.0
2014-Aug-13 06:33N 34°32' E 135°22'4 3.9
2014-Aug-13 05:33N 34°30' E 135°18'9 8.9
2014-Aug-13 04:33N 34°25' E 135°09'9 8.5
2014-Aug-13 03:30N 34°19' E 135°01'8 8.6
2014-Aug-13 02:33N 34°11' E 134°59'  
Track history (hours):
 
Tides and Currents Weather Stations Pressure Air Temp Water Temp Dewpoint Dewpoint Depression Visibility Wind Speed Wind Dir Waves Ship Positions

Chang Sheng

Last reported at 2014-Aug-16 20:05 UTC. Time now 2014-Aug-30 18:34 UTC.
Position N 33°57' E 132°41'.
Warning: this ship's position is 13 days out of date.

Length 86 m; draft 4.7 m.

Type: Cargo ship. MMSI: 312161000.

Date/timePositionNaut miles runAvg speedWind from/ knotsBaromVisibWave heightAir tempDewpointWater temp
2014-Aug-16 20:05N 33°57' E 132°41'116 8.4
2014-Aug-16 06:20N 34°35' E 134°53'7 8.9
2014-Aug-16 05:31N 34°37' E 135°01'8 8.5
2014-Aug-16 04:33N 34°34' E 135°11'9 8.5
2014-Aug-16 03:33N 34°33' E 135°21'4 3.7
2014-Aug-16 02:33N 34°31' E 135°24'0 0.0
2014-Aug-16 01:12N 34°31' E 135°24'0 0.0
2014-Aug-16 00:30N 34°31' E 135°24'0 0.0
2014-Aug-15 06:18N 34°31' E 135°24'0 0.0
2014-Aug-15 05:06N 34°31' E 135°24'0 0.0
2014-Aug-15 04:30N 34°31' E 135°24'0 0.0
2014-Aug-15 02:06N 34°31' E 135°24'0 0.0
2014-Aug-14 11:12N 34°31' E 135°24'0 0.0
2014-Aug-14 10:06N 34°31' E 135°24'0 0.0
2014-Aug-14 09:24N 34°31' E 135°24'0 0.1
2014-Aug-14 08:30N 34°31' E 135°24'0 0.0
2014-Aug-14 07:18N 34°31' E 135°24'0 0.0
2014-Aug-14 05:18N 34°31' E 135°24'0 0.0
2014-Aug-13 22:15N 34°31' E 135°24'1 1.2
2014-Aug-13 21:32N 34°32' E 135°24'2 2.2
2014-Aug-13 20:33N 34°32' E 135°22'0 0.0
2014-Aug-13 19:33N 34°32' E 135°22'0 0.0
2014-Aug-13 18:33N 34°32' E 135°22'0 0.0
2014-Aug-13 17:33N 34°32' E 135°22'0 0.0
2014-Aug-13 16:33N 34°32' E 135°22'0 0.0
2014-Aug-13 15:33N 34°32' E 135°22'0 0.0
2014-Aug-13 14:33N 34°32' E 135°22'0 0.1
2014-Aug-13 13:33N 34°32' E 135°22'0 0.0
2014-Aug-13 12:31N 34°32' E 135°22'0 0.0
2014-Aug-13 11:29N 34°32' E 135°22'0 0.0
2014-Aug-13 10:33N 34°32' E 135°22'0 0.1
2014-Aug-13 09:33N 34°32' E 135°22'0 0.0
2014-Aug-13 08:33N 34°32' E 135°22'0 0.0
2014-Aug-13 07:33N 34°32' E 135°22'0 0.0
2014-Aug-13 06:33N 34°32' E 135°22'4 3.9
2014-Aug-13 05:33N 34°30' E 135°18'9 8.9
2014-Aug-13 04:33N 34°25' E 135°09'9 8.5
2014-Aug-13 03:30N 34°19' E 135°01'8 8.6
2014-Aug-13 02:33N 34°11' E 134°59'  

Dump ship's entire track history